Time;durP1;ratioP1;P1;durP2;ratioP2;P2;SDS_P1;SDS_P2;PMS_P1;PMS_P2;Temp;Humidity;BMP_temperature;BMP_pressure;BME280_temperature;BME280_humidity;BME280_pressure;Samples;Min_cycle;Max_cycle;Signal;HPM_P1;HPM_P2
2023/10/24 00:00:18;;;;;;;8.98;4.78;;;;;;;19.03;47.81;92681.31;6045190;23;20049;-91
2023/10/24 00:02:43;;;;;;;7.53;5.30;;;;;;;19.05;47.69;92678.75;6070767;23;20017;-89
2023/10/24 00:05:09;;;;;;;6.47;4.65;;;;;;;19.03;47.77;92681.31;6069780;23;20022;-89
2023/10/24 00:07:35;;;;;;;6.43;4.75;;;;;;;19.04;47.58;92682.03;6045918;23;20029;-89
2023/10/24 00:10:03;;;;;;;6.70;4.70;;;;;;;19.06;47.75;92693.19;6070296;23;20026;-90
2023/10/24 00:12:29;;;;;;;6.05;4.40;;;;;;;19.03;47.95;92700.47;6046600;23;20033;-89
2023/10/24 00:14:55;;;;;;;8.43;4.90;;;;;;;19.02;47.82;92704.47;6046948;23;20018;-89
2023/10/24 00:17:21;;;;;;;7.43;4.45;;;;;;;19.04;47.49;92709.44;6093314;23;20046;-89
2023/10/24 00:19:48;;;;;;;7.22;5.00;;;;;;;19.02;47.39;92709.22;6070174;23;20020;-89
2023/10/24 00:22:13;;;;;;;6.32;4.47;;;;;;;19.03;47.78;92710.69;6046041;23;20018;-89
2023/10/24 00:24:39;;;;;;;6.22;4.38;;;;;;;19.03;47.65;92708.69;6046275;23;20077;-90
2023/10/24 00:27:04;;;;;;;6.47;3.83;;;;;;;19.04;47.84;92714.91;6045928;23;20018;-89
2023/10/24 00:29:30;;;;;;;6.38;4.07;;;;;;;19.03;47.68;92711.44;6093869;23;20020;-89
2023/10/24 00:31:55;;;;;;;6.63;4.53;;;;;;;19.03;47.78;92718.91;6070241;23;20026;-90
2023/10/24 00:34:21;;;;;;;4.95;3.67;;;;;;;19.02;48.01;92718.19;6045412;23;20053;-90
2023/10/24 00:36:47;;;;;;;6.80;4.25;;;;;;;19.05;47.79;92719.13;6070782;23;20033;-89
2023/10/24 00:39:12;;;;;;;6.75;3.92;;;;;;;19.04;47.82;92712.16;6045766;23;20390;-89
2023/10/24 00:41:38;;;;;;;6.47;4.07;;;;;;;19.02;47.56;92690.78;6045028;23;20022;-89
2023/10/24 00:44:03;;;;;;;6.35;4.45;;;;;;;19.02;47.66;92682.56;6069354;23;20022;-90
2023/10/24 00:46:29;;;;;;;6.55;4.07;;;;;;;19.01;47.67;92674.88;6070260;23;20050;-89
2023/10/24 00:48:55;;;;;;;6.03;3.92;;;;;;;19.00;47.79;92676.88;6070870;23;20046;-89
2023/10/24 00:51:20;;;;;;;7.05;3.75;;;;;;;19.02;47.62;92673.63;6069057;23;20073;-89
2023/10/24 00:53:47;;;;;;;6.20;4.15;;;;;;;19.01;47.62;92663.94;6046453;23;20535;-90
2023/10/24 00:56:12;;;;;;;6.75;3.60;;;;;;;18.99;47.54;92674.69;6045432;23;20518;-90
2023/10/24 00:58:38;;;;;;;6.20;3.47;;;;;;;18.99;47.65;92669.19;6046613;23;20092;-89
2023/10/24 01:01:05;;;;;;;6.45;3.33;;;;;;;18.99;47.81;92658.25;6045521;23;20041;-90
2023/10/24 01:03:31;;;;;;;5.70;3.33;;;;;;;19.01;47.71;92661.19;6070487;23;20018;-90
2023/10/24 01:05:56;;;;;;;5.53;3.20;;;;;;;19.00;47.63;92667.94;6094146;23;20518;-90
2023/10/24 01:08:22;;;;;;;5.72;3.60;;;;;;;18.97;47.55;92663.50;6069256;23;20109;-89
2023/10/24 01:10:47;;;;;;;5.28;3.67;;;;;;;18.96;47.68;92678.47;6069698;23;20014;-90
2023/10/24 01:13:12;;;;;;;5.28;3.78;;;;;;;19.00;47.53;92674.16;6069235;23;20029;-90
2023/10/24 01:15:38;;;;;;;5.88;3.22;;;;;;;19.01;47.65;92652.97;6010879;23;20030;-90
2023/10/24 01:18:04;;;;;;;4.13;3.13;;;;;;;19.00;47.66;92648.75;6010304;23;20102;-89
2023/10/24 01:20:29;;;;;;;4.53;3.13;;;;;;;19.00;47.65;92654.25;5986990;23;20027;-89
2023/10/24 01:22:55;;;;;;;5.30;3.72;;;;;;;18.97;47.73;92644.34;6011327;23;20062;-89
2023/10/24 01:25:20;;;;;;;4.10;2.78;;;;;;;18.99;47.47;92639.81;5986712;23;20026;-90
2023/10/24 01:27:53;;;;;;;4.60;3.42;;;;;;;18.95;47.43;92631.19;6011482;23;20080;-90
2023/10/24 01:30:19;;;;;;;4.65;3.08;;;;;;;18.96;47.65;92631.91;6011828;23;20027;-89
2023/10/24 01:32:44;;;;;;;5.00;3.45;;;;;;;18.97;47.49;92630.66;5987948;23;20370;-89
2023/10/24 01:35:10;;;;;;;4.18;3.17;;;;;;;18.94;47.38;92640.66;6010230;23;20078;-89
2023/10/24 01:37:35;;;;;;;4.55;2.85;;;;;;;18.96;47.61;92653.81;5982616;23;20027;-90
2023/10/24 01:40:05;;;;;;;4.57;2.88;;;;;;;18.96;47.91;92651.09;5982120;23;20051;-89
2023/10/24 01:42:31;;;;;;;3.42;2.45;;;;;;;18.98;48.00;92643.06;6010635;23;20026;-89
2023/10/24 01:44:56;;;;;;;4.35;2.95;;;;;;;18.99;47.81;92656.25;6011894;23;20565;-90
2023/10/24 01:47:23;;;;;;;4.72;2.55;;;;;;;18.97;47.69;92655.31;6026429;23;20029;-89
2023/10/24 01:49:48;;;;;;;3.80;2.78;;;;;;;18.99;47.79;92650.75;6069891;23;20026;-90
2023/10/24 01:52:14;;;;;;;4.50;2.80;;;;;;;18.96;47.86;92653.81;6068856;23;20025;-89
2023/10/24 01:54:39;;;;;;;4.70;3.10;;;;;;;18.97;47.74;92655.31;6068887;23;20014;-89
2023/10/24 01:57:05;;;;;;;3.88;2.58;;;;;;;18.97;47.54;92652.56;6045645;23;20014;-89
2023/10/24 01:59:30;;;;;;;4.97;3.45;;;;;;;18.96;47.47;92651.09;6069776;23;20032;-88
2023/10/24 02:01:56;;;;;;;4.43;2.95;;;;;;;18.95;47.62;92636.66;6045190;23;20018;-89
2023/10/24 02:04:21;;;;;;;4.45;3.03;;;;;;;18.96;47.82;92640.13;6044631;23;20465;-90
2023/10/24 02:06:47;;;;;;;4.78;3.35;;;;;;;18.94;47.63;92643.41;6070279;23;20022;-90
2023/10/24 02:09:13;;;;;;;4.75;2.90;;;;;;;18.95;47.53;92649.63;6045006;23;20041;-89
2023/10/24 02:11:38;;;;;;;4.15;2.95;;;;;;;18.95;47.33;92658.56;6093062;23;20359;-89
2023/10/24 02:14:04;;;;;;;5.82;2.75;;;;;;;18.96;47.62;92643.59;6068630;23;20021;-89
2023/10/24 02:16:29;;;;;;;4.43;2.95;;;;;;;18.96;47.69;92642.88;6045757;23;20049;-90
2023/10/24 02:18:55;;;;;;;4.90;3.35;;;;;;;18.93;47.71;92633.72;6046305;23;20074;-89
2023/10/24 02:21:21;;;;;;;3.88;2.72;;;;;;;18.96;47.49;92634.66;6068373;23;20018;-89
2023/10/24 02:23:46;;;;;;;5.43;3.25;;;;;;;18.95;47.61;92633.19;6045319;23;20067;-89
2023/10/24 02:26:15;;;;;;;3.15;2.25;;;;;;;18.95;47.51;92635.91;6068868;23;20041;-90
2023/10/24 02:28:41;;;;;;;4.43;2.63;;;;;;;18.93;47.50;92638.47;6046293;23;20032;-90
2023/10/24 02:31:06;;;;;;;5.10;3.22;;;;;;;18.92;47.70;92629.50;6068851;23;20018;-88
2023/10/24 02:33:32;;;;;;;3.90;2.17;;;;;;;18.96;47.71;92626.44;6069554;23;20018;-89
2023/10/24 02:36:10;;;;;;;5.40;3.13;;;;;;;18.93;47.52;92630.25;6046139;23;20022;-89
2023/10/24 02:38:36;;;;;;;3.78;2.65;;;;;;;18.94;47.55;92628.97;6094870;23;20034;-89
2023/10/24 02:41:03;;;;;;;4.53;2.83;;;;;;;18.92;47.56;92626.03;6047694;23;20422;-90
2023/10/24 02:43:30;;;;;;;4.78;2.60;;;;;;;18.90;47.58;92634.78;6071371;23;20450;-90
2023/10/24 02:45:56;;;;;;;4.28;2.50;;;;;;;18.91;47.31;92641.00;6071695;23;20041;-89
2023/10/24 02:48:22;;;;;;;4.20;2.83;;;;;;;18.93;47.64;92638.47;6070637;23;20021;-90
2023/10/24 02:50:52;;;;;;;3.80;2.10;;;;;;;18.92;47.63;92647.94;6071398;23;20068;-89
2023/10/24 02:53:18;;;;;;;3.10;2.30;;;;;;;18.95;47.54;92636.66;6046680;23;20022;-90
2023/10/24 02:55:44;;;;;;;4.20;2.45;;;;;;;18.94;47.68;92626.97;6071154;23;20021;-89
2023/10/24 02:58:10;;;;;;;3.00;2.08;;;;;;;18.93;47.76;92638.47;6070865;23;20025;-90
2023/10/24 03:00:35;;;;;;;4.13;2.60;;;;;;;18.93;47.55;92643.94;6070949;23;20018;-89
2023/10/24 03:03:01;;;;;;;3.33;2.25;;;;;;;18.93;47.58;92652.16;6071828;23;20018;-89
2023/10/24 03:05:26;;;;;;;3.05;2.10;;;;;;;18.93;47.62;92655.63;6070357;23;20018;-89
2023/10/24 03:07:52;;;;;;;3.17;2.25;;;;;;;18.93;47.30;92660.38;6047854;23;20020;-90
2023/10/24 03:10:19;;;;;;;4.68;2.25;;;;;;;18.92;48.07;92670.59;6070119;23;20055;-89
2023/10/24 03:12:44;;;;;;;2.95;2.33;;;;;;;18.91;47.57;92658.16;6047869;23;20025;-90
2023/10/24 03:15:10;;;;;;;3.20;2.22;;;;;;;18.95;47.43;92655.81;6070704;23;20026;-90
2023/10/24 03:17:35;;;;;;;2.88;1.92;;;;;;;18.94;47.71;92653.63;6070930;23;20018;-89
2023/10/24 03:20:01;;;;;;;3.35;2.17;;;;;;;18.92;47.43;92654.16;6047267;23;20042;-90
2023/10/24 03:22:27;;;;;;;5.18;2.13;;;;;;;18.95;47.30;92647.63;6069754;23;20018;-90
2023/10/24 03:24:53;;;;;;;10.45;2.17;;;;;;;19.03;47.51;92653.19;6071341;23;20570;-88
2023/10/24 03:27:19;;;;;;;48.20;31.90;;;;;;;19.12;47.58;92647.97;6046234;23;20022;-89
2023/10/24 03:29:45;;;;;;;16.10;9.30;;;;;;;19.15;47.06;92649.63;6072479;23;20029;-89
2023/10/24 03:32:11;;;;;;;7.13;5.20;;;;;;;19.11;46.86;92654.69;6048650;23;20354;-91
2023/10/24 03:34:36;;;;;;;15.90;8.48;;;;;;;19.14;47.31;92650.16;6049242;23;20097;-91
2023/10/24 03:37:02;;;;;;;20.88;10.25;;;;;;;19.26;47.21;92642.44;6033479;23;20095;-91
2023/10/24 03:39:28;;;;;;;4.28;2.72;;;;;;;19.17;46.84;92644.34;5981100;23;20418;-89
2023/10/24 03:41:54;;;;;;;18.75;5.95;;;;;;;19.16;47.12;92642.16;5957636;23;20024;-91
2023/10/24 03:44:19;;;;;;;15.55;7.80;;;;;;;19.26;47.02;92653.41;5983055;23;20038;-91
2023/10/24 03:46:46;;;;;;;10.48;4.05;;;;;;;19.31;47.10;92649.75;5986363;23;20658;-90
2023/10/24 03:49:13;;;;;;;6.15;3.70;;;;;;;19.24;46.75;92645.69;5986950;23;20031;-90
2023/10/24 03:51:38;;;;;;;13.65;5.13;;;;;;;19.19;46.91;92643.81;5987422;23;20464;-90
2023/10/24 03:54:04;;;;;;;25.17;10.07;;;;;;;19.18;46.34;92639.63;5982039;23;20052;-89
2023/10/24 03:56:29;;;;;;;19.92;7.55;;;;;;;19.15;46.19;92638.66;5982357;23;20019;-88
2023/10/24 03:58:55;;;;;;;26.67;9.32;;;;;;;19.08;45.44;92635.84;5983498;23;20091;-88
2023/10/24 04:01:20;;;;;;;30.08;8.20;;;;;;;18.97;45.33;92622.44;6005743;23;20102;-89
2023/10/24 04:03:46;;;;;;;17.63;7.30;;;;;;;18.94;45.40;92631.72;5983007;23;20046;-87
2023/10/24 04:06:12;;;;;;;49.92;11.60;;;;;;;18.89;44.99;92630.56;5981800;23;20023;-89
2023/10/24 04:08:38;;;;;;;26.10;7.40;;;;;;;18.91;44.96;92630.78;6004402;23;20023;-90
2023/10/24 04:11:04;;;;;;;25.83;6.60;;;;;;;18.84;44.83;92621.19;6038554;23;20022;-89
2023/10/24 04:13:29;;;;;;;17.52;5.05;;;;;;;18.80;44.56;92615.34;6095790;23;20021;-90
2023/10/24 04:16:01;;;;;;;29.95;6.60;;;;;;;18.79;44.28;92605.66;6096254;23;20024;-90
2023/10/24 04:18:27;;;;;;;47.33;8.40;;;;;;;18.78;44.93;92606.91;6071479;23;20038;-90
2023/10/24 04:20:53;;;;;;;41.15;10.15;;;;;;;18.76;44.41;92609.44;6072081;23;21218;-90
2023/10/24 04:23:18;;;;;;;47.35;9.30;;;;;;;18.80;43.94;92611.88;6070650;23;20017;-89
2023/10/24 04:25:44;;;;;;;47.72;9.82;;;;;;;18.73;43.92;92609.78;6093434;23;20026;-90
2023/10/24 04:28:09;;;;;;;72.53;8.75;;;;;;;18.73;43.82;92605.03;6117179;23;20022;-90
2023/10/24 04:30:38;;;;;;;23.98;4.13;;;;;;;18.63;44.13;92612.22;6094472;23;20013;-89
2023/10/24 04:33:04;;;;;;;27.40;4.68;;;;;;;18.57;44.01;92617.06;6094417;23;20017;-89
2023/10/24 04:35:29;;;;;;;25.00;4.97;;;;;;;18.58;44.33;92615.06;6094259;23;20025;-91
2023/10/24 04:37:54;;;;;;;27.50;4.45;;;;;;;18.63;43.96;92612.22;6123088;23;20105;-89
2023/10/24 04:40:21;;;;;;;51.05;6.97;;;;;;;18.73;44.43;92607.78;6075738;23;20025;-88
2023/10/24 04:42:47;;;;;;;36.88;7.32;;;;;;;18.76;44.53;92614.94;6097365;23;20065;-89
2023/10/24 04:45:12;;;;;;;41.70;6.03;;;;;;;18.77;43.90;92607.44;6075211;23;20021;-92
2023/10/24 04:47:39;;;;;;;52.13;9.25;;;;;;;18.75;44.39;92610.00;6074955;23;20028;-90
2023/10/24 04:50:07;;;;;;;62.85;12.85;;;;;;;18.76;44.42;92603.97;6123847;23;20096;-90
2023/10/24 04:52:32;;;;;;;81.38;13.98;;;;;;;18.76;44.39;92600.50;6099786;23;20006;-91
2023/10/24 04:54:58;;;;;;;51.17;10.50;;;;;;;18.78;44.89;92585.03;6076471;23;20029;-90
2023/10/24 04:57:24;;;;;;;44.58;8.48;;;;;;;18.79;44.88;92577.53;6100132;23;20017;-91
2023/10/24 04:59:49;;;;;;;30.90;11.70;;;;;;;18.77;44.79;92563.66;6064619;23;20017;-89
2023/10/24 05:02:15;;;;;;;46.55;12.48;;;;;;;18.80;45.09;92560.59;6075693;23;20021;-92
2023/10/24 05:04:40;;;;;;;38.65;10.98;;;;;;;18.85;44.64;92561.69;6077309;23;20041;-91
2023/10/24 05:07:06;;;;;;;35.90;12.18;;;;;;;18.87;44.85;92566.63;6100749;23;20022;-90
2023/10/24 05:09:31;;;;;;;43.03;18.08;;;;;;;18.84;44.89;92571.91;6076785;23;20033;-90
2023/10/24 05:11:57;;;;;;;42.42;17.33;;;;;;;18.84;45.33;92566.44;6099917;23;20025;-91
2023/10/24 05:14:22;;;;;;;38.40;16.73;;;;;;;18.84;45.00;92573.91;6076298;23;20076;-91
2023/10/24 05:16:50;;;;;;;45.78;18.60;;;;;;;18.87;45.18;92583.81;6077829;23;20041;-89
2023/10/24 05:19:16;;;;;;;59.50;21.35;;;;;;;18.88;45.26;92574.31;6072407;23;20649;-90
2023/10/24 05:21:41;;;;;;;43.30;22.88;;;;;;;18.87;45.20;92581.06;6099119;23;20041;-89
2023/10/24 05:24:07;;;;;;;36.40;18.67;;;;;;;18.89;45.24;92577.78;6124644;23;20053;-92
2023/10/24 05:26:32;;;;;;;52.92;25.92;;;;;;;18.90;45.23;92571.06;6101233;23;20044;-91
2023/10/24 05:28:58;;;;;;;69.18;34.05;;;;;;;18.91;45.10;92556.09;6100354;23;20382;-90
2023/10/24 05:31:26;;;;;;;64.38;34.53;;;;;;;18.89;45.10;92559.38;6097689;23;20088;-89
2023/10/24 05:33:52;;;;;;;73.38;36.88;;;;;;;18.89;45.20;92556.63;6099777;23;20430;-88
2023/10/24 05:36:17;;;;;;;91.18;37.88;;;;;;;18.91;45.30;92570.53;6099096;23;20442;-90
2023/10/24 05:38:45;;;;;;;90.18;43.15;;;;;;;18.94;45.16;92561.25;6096838;23;20410;-88
2023/10/24 05:41:11;;;;;;;95.07;41.88;;;;;;;18.95;45.26;92556.50;6072121;23;20022;-90
2023/10/24 05:43:39;;;;;;;97.18;41.10;;;;;;;18.93;45.23;92548.81;6095402;23;20262;-91
2023/10/24 05:46:05;;;;;;;101.80;43.00;;;;;;;18.95;45.13;92540.06;6070535;23;20414;-91
2023/10/24 05:48:32;;;;;;;93.65;41.85;;;;;;;18.95;45.89;92534.59;6070227;23;20022;-90
2023/10/24 05:50:57;;;;;;;106.32;51.38;;;;;;;18.96;45.61;92536.06;6096522;23;20029;-92
2023/10/24 05:53:22;;;;;;;99.78;46.40;;;;;;;18.95;45.79;92551.75;6070576;23;20110;-92
2023/10/24 05:55:48;;;;;;;89.70;47.13;;;;;;;18.96;46.10;92547.75;6103126;23;20096;-89
2023/10/24 05:58:13;;;;;;;78.85;42.10;;;;;;;18.98;46.12;92545.22;6072454;23;20042;-90
2023/10/24 06:00:39;;;;;;;100.25;51.75;;;;;;;19.01;45.58;92549.63;6078415;23;20401;-92
2023/10/24 06:03:04;;;;;;;89.00;46.67;;;;;;;19.02;46.01;92539.41;6100109;23;20338;-92
2023/10/24 06:05:30;;;;;;;90.40;45.40;;;;;;;19.07;45.64;92546.72;6073057;23;20069;-91
2023/10/24 06:07:55;;;;;;;98.47;49.00;;;;;;;19.19;45.34;92550.66;6097043;23;20029;-89
2023/10/24 06:10:21;;;;;;;101.10;47.45;;;;;;;19.18;45.07;92555.41;6071794;23;20021;-90
2023/10/24 06:12:47;;;;;;;96.45;48.22;;;;;;;19.09;45.14;92552.41;6102215;23;20014;-90
2023/10/24 06:15:13;;;;;;;99.28;50.17;;;;;;;19.06;45.43;92556.94;6098089;23;20033;-91
2023/10/24 06:17:38;;;;;;;81.32;43.30;;;;;;;19.09;45.80;92546.94;6100061;23;20018;-92
2023/10/24 06:20:05;;;;;;;92.40;47.83;;;;;;;19.11;44.80;92547.84;6089417;23;20050;-90
2023/10/24 06:22:31;;;;;;;90.00;51.15;;;;;;;19.11;45.23;92549.88;6041393;23;20038;-90
2023/10/24 06:25:00;;;;;;;81.75;44.03;;;;;;;19.09;45.18;92547.66;6041660;23;20070;-92
2023/10/24 06:27:26;;;;;;;83.75;43.95;;;;;;;19.10;45.32;92559.34;6089048;23;20029;-90
2023/10/24 06:29:51;;;;;;;73.50;39.70;;;;;;;19.10;45.49;92562.81;6066848;23;20026;-89
2023/10/24 06:32:17;;;;;;;79.78;41.42;;;;;;;19.10;45.24;92570.31;6090271;23;20026;-92
2023/10/24 06:34:42;;;;;;;67.43;37.20;;;;;;;19.10;45.38;92573.78;6066867;23;20100;-90
2023/10/24 06:37:08;;;;;;;81.78;38.78;;;;;;;19.14;45.23;92568.72;6065999;23;20029;-92
2023/10/24 06:39:33;;;;;;;69.72;38.03;;;;;;;19.11;45.13;92566.31;6031036;23;20049;-91
2023/10/24 06:41:59;;;;;;;59.45;32.30;;;;;;;19.11;45.69;92550.59;6042578;23;20026;-91
2023/10/24 06:44:26;;;;;;;59.58;33.45;;;;;;;19.09;45.25;92546.94;6040891;23;20088;-90
2023/10/24 06:46:51;;;;;;;60.60;35.17;;;;;;;19.09;45.19;92553.13;6062462;23;20126;-91
2023/10/24 06:49:17;;;;;;;64.57;31.92;;;;;;;19.10;45.83;92551.88;6039191;23;20023;-89
2023/10/24 06:51:42;;;;;;;53.70;30.13;;;;;;;19.12;45.53;92556.81;6091453;23;20024;-91
2023/10/24 06:54:08;;;;;;;51.20;30.42;;;;;;;19.13;45.58;92547.31;6099190;23;20148;-90
2023/10/24 06:56:34;;;;;;;77.53;37.05;;;;;;;19.18;45.66;92538.25;6149311;23;20112;-92
2023/10/24 06:59:00;;;;;;;77.00;33.28;;;;;;;19.26;45.19;92536.31;6101955;23;20501;-91
2023/10/24 07:01:27;;;;;;;162.80;50.30;;;;;;;19.18;45.14;92543.72;6075856;23;20044;-93
2023/10/24 07:03:54;;;;;;;97.60;45.72;;;;;;;19.15;45.43;92539.31;6078976;23;20032;-92
2023/10/24 07:06:20;;;;;;;89.00;44.08;;;;;;;19.11;45.52;92530.69;6077967;23;20375;-92
2023/10/24 07:08:48;;;;;;;109.97;50.70;;;;;;;19.13;45.44;92519.94;6102746;23;20462;-93
2023/10/24 07:11:14;;;;;;;108.53;51.72;;;;;;;19.12;45.70;92510.25;6101622;23;20048;-91
2023/10/24 07:13:40;;;;;;;97.45;51.42;;;;;;;19.13;45.76;92504.22;6087863;23;20017;-92
2023/10/24 07:16:37;;;;;;;121.32;55.45;;;;;;;19.17;45.84;92504.63;6057143;23;20017;-92
2023/10/24 07:19:05;;;;;;;131.63;69.05;;;;;;;19.21;45.48;92504.28;6007636;23;20472;-92
2023/10/24 07:21:41;;;;;;;169.25;75.75;;;;;;;19.21;45.31;92500.81;5971170;23;20034;-92
2023/10/24 07:24:07;;;;;;;183.63;82.78;;;;;;;19.19;45.42;92482.19;5944729;23;20102;-91
2023/10/24 07:26:32;;;;;;;205.57;80.80;;;;;;;19.20;45.16;92485.66;5983838;23;20023;-91
2023/10/24 07:28:58;;;;;;;222.25;85.90;;;;;;;19.17;45.45;92471.75;5986283;23;20365;-92
2023/10/24 07:31:23;;;;;;;238.38;88.70;;;;;;;19.25;45.52;92474.56;5984289;23;20019;-90
2023/10/24 07:33:49;;;;;;;187.15;76.70;;;;;;;19.22;45.53;92478.38;5991667;23;20058;-91
2023/10/24 07:36:16;;;;;;;168.85;75.35;;;;;;;19.23;45.62;92468.13;5987106;23;20023;-92
2023/10/24 07:38:41;;;;;;;179.70;73.45;;;;;;;19.21;45.57;92471.41;5960872;23;20027;-91
2023/10/24 07:41:07;;;;;;;142.00;69.00;;;;;;;19.18;45.30;92464.28;5984674;23;20023;-90
2023/10/24 07:43:32;;;;;;;125.00;65.63;;;;;;;19.19;45.81;92463.00;5984532;23;20455;-90
2023/10/24 07:45:58;;;;;;;144.50;66.72;;;;;;;19.20;46.06;92469.22;5952262;24;20031;-92
2023/10/24 07:48:24;;;;;;;126.60;62.70;;;;;;;19.21;45.69;92454.97;5897460;24;20068;-93
2023/10/24 07:50:50;;;;;;;128.55;62.63;;;;;;;19.21;45.91;92446.75;5852899;24;20205;-92
2023/10/24 07:53:16;;;;;;;129.75;67.25;;;;;;;19.20;45.57;92453.50;5885153;24;20497;-91
2023/10/24 07:55:41;;;;;;;129.48;67.28;;;;;;;19.26;45.81;92451.34;5909205;24;20024;-92
2023/10/24 07:58:39;;;;;;;124.55;64.47;;;;;;;19.30;45.53;92451.72;5939119;23;20016;-91
2023/10/24 08:01:10;;;;;;;121.97;64.50;;;;;;;19.29;45.56;92455.72;5836094;24;20391;-94
2023/10/24 08:03:36;;;;;;;127.22;60.30;;;;;;;19.26;45.45;92451.34;5868557;24;20033;-92
2023/10/24 08:06:03;;;;;;;101.22;54.70;;;;;;;19.27;46.26;92452.09;5855082;24;20029;-90
2023/10/24 08:08:29;;;;;;;117.25;56.58;;;;;;;19.26;45.96;92456.09;5867146;24;20534;-93
2023/10/24 08:10:54;;;;;;;109.95;53.80;;;;;;;19.25;45.56;92460.13;5823132;24;20033;-89
2023/10/24 08:13:20;;;;;;;108.90;52.17;;;;;;;19.34;45.83;92459.59;5864173;24;20090;-89
2023/10/24 08:15:48;;;;;;;111.50;54.42;;;;;;;19.29;45.93;92463.97;5820941;24;20337;-89
2023/10/24 08:18:13;;;;;;;142.80;67.18;;;;;;;19.26;45.95;92456.09;5895888;24;20521;-89
2023/10/24 08:20:39;;;;;;;140.68;63.10;;;;;;;19.30;46.07;92438.03;5896657;24;20029;-91
2023/10/24 08:23:05;;;;;;;139.75;65.72;;;;;;;19.28;46.20;92435.09;5894213;24;20040;-90
2023/10/24 08:25:31;;;;;;;150.43;73.38;;;;;;;19.28;45.76;92431.63;5915392;24;20083;-92
2023/10/24 08:28:00;;;;;;;166.63;78.10;;;;;;;19.28;45.81;92439.84;5939010;23;20020;-92
2023/10/24 08:30:25;;;;;;;170.70;80.65;;;;;;;19.33;45.65;92433.47;5953849;23;20151;-92
2023/10/24 08:32:51;;;;;;;213.77;88.93;;;;;;;19.31;46.05;92433.28;6047770;23;20450;-92
2023/10/24 08:35:18;;;;;;;189.80;91.32;;;;;;;19.32;45.90;92432.00;6071500;23;20435;-90
2023/10/24 08:37:47;;;;;;;186.80;90.75;;;;;;;19.36;45.37;92424.91;6077895;23;20105;-93
2023/10/24 08:40:12;;;;;;;213.32;101.47;;;;;;;19.29;45.59;92419.38;6077406;23;20018;-90
2023/10/24 08:42:39;;;;;;;199.07;95.90;;;;;;;19.32;45.61;92410.81;6104404;23;20021;-92
2023/10/24 08:45:05;;;;;;;187.50;98.70;;;;;;;19.30;45.84;92405.13;6076389;23;20026;-91
2023/10/24 08:47:31;;;;;;;194.43;102.50;;;;;;;19.31;46.23;92403.88;6124928;23;20118;-91
2023/10/24 08:50:00;;;;;;;248.07;141.40;;;;;;;19.34;46.02;92405.53;6077056;23;20025;-91
2023/10/24 08:52:33;;;;;;;201.32;110.38;;;;;;;19.31;46.61;92403.88;6076008;23;20006;-92
2023/10/24 08:55:05;;;;;;;228.15;120.72;;;;;;;19.35;46.18;92407.00;6077189;23;20018;-92
2023/10/24 08:57:39;;;;;;;256.45;148.00;;;;;;;19.38;46.37;92410.66;6099592;23;20454;-92
2023/10/24 09:00:18;;;;;;;274.38;163.60;;;;;;;19.32;46.13;92424.50;6073477;23;20041;-91
2023/10/24 09:02:45;;;;;;;203.57;112.53;;;;;;;19.32;46.13;92424.50;6099210;23;20079;-92
2023/10/24 09:05:12;;;;;;;213.38;117.47;;;;;;;19.29;46.20;92424.84;6076786;23;20073;-92
2023/10/24 09:07:37;;;;;;;221.90;117.28;;;;;;;19.31;46.50;92420.31;6076930;23;20045;-91
2023/10/24 09:10:03;;;;;;;241.25;116.63;;;;;;;19.33;46.21;92422.50;6065607;23;20055;-92
2023/10/24 09:12:30;;;;;;;200.90;112.95;;;;;;;19.33;46.42;92436.22;6073879;23;20014;-91
2023/10/24 09:14:56;;;;;;;231.32;120.95;;;;;;;19.35;46.73;92428.19;6099073;23;20022;-92
2023/10/24 09:17:22;;;;;;;228.20;120.13;;;;;;;19.34;46.18;92438.41;6071808;23;20018;-91
2023/10/24 09:19:48;;;;;;;191.43;103.60;;;;;;;19.37;46.87;92429.13;6100776;23;20028;-89
2023/10/24 09:22:17;;;;;;;213.65;115.78;;;;;;;19.33;46.53;92425.97;6077188;23;20017;-91
2023/10/24 09:24:49;;;;;;;215.85;112.80;;;;;;;19.32;46.57;92416.28;6079557;23;20054;-91
2023/10/24 09:27:15;;;;;;;204.32;114.47;;;;;;;19.32;46.58;92427.25;6063804;23;20022;-91
2023/10/24 09:29:41;;;;;;;183.63;100.57;;;;;;;19.33;46.83;92428.72;6051979;23;20018;-90
2023/10/24 09:32:07;;;;;;;202.20;113.35;;;;;;;19.31;46.52;92425.06;6070661;23;20068;-91
2023/10/24 09:34:33;;;;;;;189.00;108.78;;;;;;;19.35;46.72;92428.19;6097907;23;20042;-91
2023/10/24 09:37:10;;;;;;;192.15;104.93;;;;;;;19.36;46.65;92429.66;6074932;23;20030;-92
2023/10/24 09:39:57;;;;;;;211.52;118.30;;;;;;;19.33;46.41;92428.00;6080079;23;20097;-93
2023/10/24 09:42:28;;;;;;;213.95;116.22;;;;;;;19.34;46.33;92418.50;6056360;23;20026;-92
2023/10/24 09:45:07;;;;;;;212.02;105.55;;;;;;;19.38;46.70;92421.63;6107454;23;20088;-93
2023/10/24 09:47:41;;;;;;;226.65;122.57;;;;;;;19.34;46.46;92413.00;6043681;23;20018;-94
2023/10/24 09:50:11;;;;;;;212.45;116.18;;;;;;;19.33;46.42;92409.53;6027018;23;20015;-92
2023/10/24 09:52:38;;;;;;;217.88;111.28;;;;;;;19.35;46.41;92400.78;5998743;23;20085;-89
2023/10/24 09:55:03;;;;;;;238.55;128.05;;;;;;;19.35;46.09;92393.28;5981293;24;20214;-92
2023/10/24 09:57:38;;;;;;;221.05;112.25;;;;;;;19.34;46.60;92378.13;5953584;24;20051;-92
2023/10/24 10:00:04;;;;;;;286.65;123.00;;;;;;;19.36;46.36;92363.88;5973485;24;20024;-92
2023/10/24 10:02:29;;;;;;;294.00;143.88;;;;;;;19.35;46.35;92359.69;5951158;24;20166;-93
2023/10/24 10:04:55;;;;;;;298.70;149.18;;;;;;;19.36;46.15;92358.41;5951677;24;20111;-92
2023/10/24 10:07:20;;;;;;;276.23;153.63;;;;;;;19.42;46.22;92356.97;5949298;24;20028;-93
2023/10/24 10:09:50;;;;;;;279.55;148.68;;;;;;;19.42;46.76;92358.97;5949954;24;20024;-93
2023/10/24 10:12:18;;;;;;;281.45;156.85;;;;;;;19.37;46.48;92351.66;5949371;24;20065;-91
2023/10/24 10:15:02;;;;;;;288.48;161.00;;;;;;;19.33;46.48;92348.53;5951881;24;20516;-91
2023/10/24 10:17:54;;;;;;;271.10;148.52;;;;;;;19.33;46.56;92341.03;5977983;23;20052;-92
2023/10/24 10:20:56;;;;;;;247.05;134.52;;;;;;;19.37;46.64;92337.94;6008355;23;20030;-92
2023/10/24 10:23:36;;;;;;;263.70;148.00;;;;;;;19.32;46.35;92333.34;6029420;23;20031;-92
2023/10/24 10:26:15;;;;;;;253.45;143.60;;;;;;;19.33;46.70;92330.06;6025018;23;20022;-91
2023/10/24 10:28:59;;;;;;;266.25;146.45;;;;;;;19.37;46.51;92329.72;6094536;23;20018;-92
2023/10/24 10:31:31;;;;;;;251.73;141.00;;;;;;;19.39;46.28;92340.88;6094414;23;20456;-91
2023/10/24 10:33:58;;;;;;;269.42;171.70;;;;;;;19.37;46.55;92333.19;6090509;23;20488;-89
2023/10/24 10:36:25;;;;;;;348.35;263.42;;;;;;;19.37;46.84;92327.72;6090858;23;20029;-92
2023/10/24 10:38:50;;;;;;;229.57;129.80;;;;;;;19.38;46.59;92325.72;6070464;23;20552;-93
2023/10/24 10:41:21;;;;;;;225.02;126.88;;;;;;;19.38;46.60;92314.75;6093026;23;20018;-94
2023/10/24 10:43:53;;;;;;;199.88;117.20;;;;;;;19.37;46.60;92314.00;6092171;23;20102;-92
2023/10/24 10:46:21;;;;;;;190.40;109.28;;;;;;;19.36;46.68;92300.84;6093595;23;20173;-90
2023/10/24 10:48:50;;;;;;;275.98;133.10;;;;;;;19.34;46.93;92304.13;6118279;23;20022;-90
2023/10/24 10:51:17;;;;;;;128.10;74.43;;;;;;;19.31;47.47;92302.47;6071624;23;20470;-92
2023/10/24 10:53:54;;;;;;;114.13;61.38;;;;;;;19.29;46.98;92296.81;6075228;23;20254;-92
2023/10/24 10:56:24;;;;;;;123.53;66.32;;;;;;;19.26;46.73;92286.97;6120960;23;20066;-94
2023/10/24 10:59:08;;;;;;;115.15;63.17;;;;;;;19.24;47.19;92281.28;6099494;23;20018;-93
2023/10/24 11:01:45;;;;;;;127.32;64.93;;;;;;;19.25;47.26;92282.03;6122069;23;20018;-93
2023/10/24 11:04:14;;;;;;;140.40;67.35;;;;;;;19.25;47.58;92260.09;6099117;23;20018;-91
2023/10/24 11:06:51;;;;;;;124.57;65.78;;;;;;;19.28;47.43;92267.22;6076707;23;20014;-91
2023/10/24 11:09:16;;;;;;;143.85;80.50;;;;;;;19.30;47.28;92276.34;6098333;23;20068;-92
2023/10/24 11:11:43;;;;;;;160.30;83.88;;;;;;;19.30;46.90;92273.63;6098680;23;20018;-91
2023/10/24 11:14:17;;;;;;;167.20;88.28;;;;;;;19.32;46.99;92271.06;6099842;23;20026;-91
2023/10/24 11:16:42;;;;;;;166.13;88.70;;;;;;;19.33;47.01;92261.56;6075508;23;20029;-93
2023/10/24 11:19:17;;;;;;;197.63;103.32;;;;;;;19.32;46.90;92260.09;6074318;23;20361;-92